createdAt,value
2023-04-15T00:02:19.560Z,99818.25
2023-04-15T00:04:47.871Z,99812.56
2023-04-15T00:07:16.238Z,99820.13
2023-04-15T00:09:44.676Z,99816.38
2023-04-15T00:12:13.085Z,99818.69
2023-04-15T00:14:40.905Z,99815.78
2023-04-15T00:17:10.060Z,99814.66
2023-04-15T00:19:38.294Z,99816.00
2023-04-15T00:22:06.211Z,99814.03
2023-04-15T00:24:33.971Z,99807.69
2023-04-15T00:27:01.768Z,99804.75
2023-04-15T00:29:29.699Z,99806.22
2023-04-15T00:31:57.964Z,99813.00
2023-04-15T00:34:27.929Z,99802.34
2023-04-15T00:36:55.749Z,99804.50
2023-04-15T00:39:23.690Z,99801.72
2023-04-15T00:41:51.461Z,99801.59
2023-04-15T00:44:20.019Z,99796.19
2023-04-15T00:46:50.335Z,99804.06
2023-04-15T00:49:19.289Z,99797.03
2023-04-15T00:51:48.457Z,99797.81
2023-04-15T00:54:16.368Z,99797.81
2023-04-15T00:56:44.513Z,99794.38
2023-04-15T00:59:12.506Z,99806.69
2023-04-15T01:01:41.736Z,99798.63
2023-04-15T01:04:11.054Z,99795.19
2023-04-15T01:06:39.125Z,99793.38
2023-04-15T01:09:08.212Z,99793.25
2023-04-15T01:11:36.515Z,99794.91
2023-04-15T01:14:04.772Z,99794.75
2023-04-15T01:16:32.834Z,99796.22
2023-04-15T01:19:01.267Z,99799.66
2023-04-15T01:21:29.901Z,99796.75
2023-04-15T01:23:58.491Z,99797.44
2023-04-15T01:26:28.187Z,99804.16
2023-04-15T01:28:56.401Z,99806.50
2023-04-15T01:31:25.138Z,99809.94
2023-04-15T01:33:53.000Z,99800.94
2023-04-15T01:36:20.993Z,99802.75
2023-04-15T01:38:49.122Z,99801.78
2023-04-15T01:41:17.191Z,99804.53
2023-04-15T01:43:46.986Z,99807.03
2023-04-15T01:46:14.797Z,99809.66
2023-04-15T01:48:42.632Z,99807.03
2023-04-15T01:51:10.407Z,99809.66
2023-04-15T01:53:38.315Z,99808.00
2023-04-15T01:56:07.254Z,99809.66
2023-04-15T01:58:35.037Z,99806.19
2023-04-15T02:01:04.637Z,99801.78
2023-04-15T02:03:33.608Z,99802.88
2023-04-15T02:06:01.346Z,99808.97
2023-04-15T02:08:29.799Z,99804.84
2023-04-15T02:10:58.064Z,99809.25
2023-04-15T02:13:26.387Z,99803.34
2023-04-15T02:15:56.365Z,99801.72
2023-04-15T02:18:25.574Z,99803.66
2023-04-15T02:20:53.613Z,99807.41
2023-04-15T02:23:21.321Z,99804.94
2023-04-15T02:25:53.822Z,99806.06
2023-04-15T02:28:22.604Z,99806.22
2023-04-15T02:30:52.752Z,99807.50
2023-04-15T02:33:21.032Z,99809.47
2023-04-15T02:35:50.187Z,99807.97
2023-04-15T02:38:18.011Z,99802.03
2023-04-15T02:40:46.172Z,99809.25
2023-04-15T02:43:13.967Z,99805.94
2023-04-15T02:45:43.472Z,99809.53
2023-04-15T02:48:11.514Z,99809.69
2023-04-15T02:50:40.716Z,99812.16
2023-04-15T02:53:13.408Z,99812.31
2023-04-15T02:55:41.214Z,99814.94
2023-04-15T02:58:08.918Z,99820.31
2023-04-15T03:00:36.707Z,99816.22
2023-04-15T03:03:06.142Z,99819.00
2023-04-15T03:05:34.320Z,99820.94
2023-04-15T03:08:04.772Z,99822.75
2023-04-15T03:10:33.922Z,99817.19
2023-04-15T03:13:02.865Z,99828.38
2023-04-15T03:15:30.749Z,99821.34
2023-04-15T03:17:58.586Z,99817.56
2023-04-15T03:20:26.472Z,99813.81
2023-04-15T03:22:54.399Z,99813.53
2023-04-15T03:25:24.269Z,99812.38
2023-04-15T03:27:53.597Z,99804.22
2023-04-15T03:30:21.473Z,99809.81
2023-04-15T03:32:49.313Z,99801.78
2023-04-15T03:35:17.335Z,99800.69
2023-04-15T03:37:45.144Z,99804.63
2023-04-15T03:40:13.799Z,99804.47
2023-04-15T03:42:41.631Z,99810.41
2023-04-15T03:45:11.906Z,99810.41
2023-04-15T03:47:39.663Z,99813.84
2023-04-15T03:50:08.541Z,99812.22
2023-04-15T03:52:36.508Z,99813.34
2023-04-15T03:55:04.356Z,99823.16
2023-04-15T03:57:32.241Z,99828.56
2023-04-15T03:59:59.949Z,99818.66
2023-04-15T04:02:29.169Z,99830.31
2023-04-15T04:04:57.037Z,99829.94
2023-04-15T04:07:25.439Z,99836.47
2023-04-15T04:09:53.323Z,99832.34
2023-04-15T04:12:21.064Z,99828.19
2023-04-15T04:14:48.757Z,99835.44
2023-04-15T04:17:16.521Z,99836.41
2023-04-15T04:19:45.817Z,99835.44
2023-04-15T04:22:13.566Z,99837.09
2023-04-15T04:24:41.364Z,99833.44
2023-04-15T04:27:09.136Z,99829.72
2023-04-15T04:29:36.884Z,99832.06
2023-04-15T04:32:04.724Z,99832.56
2023-04-15T04:34:32.512Z,99834.06
2023-04-15T04:37:01.687Z,99831.78
2023-04-15T04:39:29.409Z,99834.13
2023-04-15T04:41:57.508Z,99834.50
2023-04-15T04:44:25.371Z,99828.25
2023-04-15T04:46:53.121Z,99830.41
2023-04-15T04:49:20.944Z,99824.03
2023-04-15T04:51:48.892Z,99824.41
2023-04-15T04:54:18.102Z,99829.34
2023-04-15T04:56:46.358Z,99835.13
2023-04-15T04:59:14.116Z,99836.50
2023-04-15T05:01:42.077Z,99840.94
2023-04-15T05:04:10.024Z,99846.53
2023-04-15T05:06:37.890Z,99844.09
2023-04-15T05:09:05.635Z,99849.84
2023-04-15T05:11:34.721Z,99851.84
2023-04-15T05:14:02.558Z,99843.34
2023-04-15T05:16:30.382Z,99856.72
2023-04-15T05:18:58.118Z,99854.72
2023-04-15T05:21:25.918Z,99852.31
2023-04-15T05:23:53.702Z,99848.06
2023-04-15T05:26:22.109Z,99853.69
2023-04-15T05:28:51.215Z,99857.19
2023-04-15T05:31:19.016Z,99861.00
2023-04-15T05:33:46.763Z,99857.44
2023-04-15T05:36:14.497Z,99853.81
2023-04-15T05:38:42.435Z,99852.38
2023-04-15T05:41:10.273Z,99859.66
2023-04-15T05:43:38.033Z,99862.63
2023-04-15T05:46:08.551Z,99860.84
2023-04-15T05:48:36.568Z,99860.53
2023-04-15T05:51:04.430Z,99867.63
2023-04-15T05:53:32.119Z,99875.56
2023-04-15T05:56:00.037Z,99871.28
2023-04-15T05:58:27.937Z,99882.66
2023-04-15T06:00:55.788Z,99877.25
2023-04-15T06:03:25.524Z,99874.09
2023-04-15T06:05:53.402Z,99871.81
2023-04-15T06:08:21.503Z,99880.06
2023-04-15T06:10:49.330Z,99880.22
2023-04-15T06:13:17.207Z,99884.31
2023-04-15T06:15:44.998Z,99881.66
2023-04-15T06:18:13.020Z,99884.28
2023-04-15T06:20:42.179Z,99886.59
2023-04-15T06:23:09.913Z,99890.53
2023-04-15T06:25:37.695Z,99889.06
2023-04-15T06:28:05.988Z,99894.03
2023-04-15T06:30:33.773Z,99894.66
2023-04-15T06:33:03.341Z,99895.97
2023-04-15T06:35:31.141Z,99890.53
2023-04-15T06:38:00.264Z,99902.06
2023-04-15T06:40:28.230Z,99902.06
2023-04-15T06:42:56.454Z,99895.31
2023-04-15T06:45:24.244Z,99896.63
2023-04-15T06:47:52.034Z,99900.25
2023-04-15T06:50:19.837Z,99895.50
2023-04-15T06:52:47.643Z,99897.94
2023-04-15T06:55:16.784Z,99899.25
2023-04-15T06:57:44.482Z,99901.22
2023-04-15T07:00:13.557Z,99894.84
2023-04-15T07:02:41.562Z,99904.41
2023-04-15T07:05:09.997Z,99901.41
2023-04-15T07:07:38.512Z,99903.88
2023-04-15T07:10:07.415Z,99899.28
2023-04-15T07:12:36.849Z,99904.91
2023-04-15T07:15:05.473Z,99902.59
2023-04-15T07:17:33.252Z,99900.09
2023-04-15T07:20:01.022Z,99910.19
2023-04-15T07:22:28.734Z,99906.22
2023-04-15T07:24:56.660Z,99911.47
2023-04-15T07:27:24.368Z,99907.22
2023-04-15T07:29:53.533Z,99900.13
2023-04-15T07:32:21.346Z,99917.44
2023-04-15T07:34:49.080Z,99916.41
2023-04-15T07:37:17.494Z,99910.28
2023-04-15T07:39:45.209Z,99919.38
2023-04-15T07:42:13.068Z,99918.19
2023-04-15T07:44:41.123Z,99923.31
2023-04-15T07:47:10.698Z,99927.28
2023-04-15T07:49:38.546Z,99931.25
2023-04-15T07:52:06.634Z,99930.78
2023-04-15T07:54:34.358Z,99933.22
2023-04-15T07:57:03.098Z,99926.78
2023-04-15T07:59:33.355Z,99935.97
2023-04-15T08:02:01.324Z,99937.97
2023-04-15T08:04:31.204Z,99932.84
2023-04-15T08:06:59.106Z,99924.91
2023-04-15T08:09:27.182Z,99931.34
2023-04-15T08:11:55.140Z,99934.16
2023-04-15T08:14:22.984Z,99936.78
2023-04-15T08:16:50.818Z,99937.63
2023-04-15T08:19:18.601Z,99946.22
2023-04-15T08:21:47.878Z,99955.63
2023-04-15T08:24:15.814Z,99954.00
2023-04-15T08:26:43.583Z,99946.75
2023-04-15T08:29:11.353Z,99939.00
2023-04-15T08:31:39.111Z,99949.41
2023-04-15T08:34:07.005Z,99946.06
2023-04-15T08:36:34.769Z,99954.44
2023-04-15T08:39:04.970Z,99959.22
2023-04-15T08:41:40.841Z,99957.06
2023-04-15T08:44:08.963Z,99955.25
2023-04-15T08:46:36.984Z,99956.38
2023-04-15T08:49:06.045Z,99960.19
2023-04-15T08:51:34.066Z,99950.06
2023-04-15T08:54:03.568Z,99948.25
2023-04-15T08:56:33.636Z,99952.75
2023-04-15T08:59:01.949Z,99957.53
2023-04-15T09:01:30.075Z,99952.72
2023-04-15T09:04:00.080Z,99959.75
2023-04-15T09:06:28.118Z,99949.19
2023-04-15T09:08:55.870Z,99954.97
2023-04-15T09:11:25.012Z,99945.84
2023-04-15T09:13:52.762Z,99953.44
2023-04-15T09:16:20.720Z,99958.88
2023-04-15T09:18:48.536Z,99954.94
2023-04-15T09:21:18.098Z,99957.38
2023-04-15T09:23:56.691Z,99954.19
2023-04-15T09:26:34.608Z,99965.13
2023-04-15T09:29:07.455Z,99959.47
2023-04-15T09:31:35.520Z,99970.31
2023-04-15T09:34:03.947Z,99971.50
2023-04-15T09:36:42.608Z,99970.41
2023-04-15T09:39:10.464Z,99973.03
2023-04-15T09:41:40.338Z,99977.28
2023-04-15T09:44:08.341Z,99977.38
2023-04-15T09:46:43.321Z,99973.56
2023-04-15T09:49:12.319Z,99975.19
2023-04-15T09:51:40.175Z,99976.84
2023-04-15T09:54:07.922Z,99978.38
2023-04-15T09:56:37.837Z,99974.25
2023-04-15T09:59:07.595Z,99983.06
2023-04-15T10:01:36.143Z,99989.72
2023-04-15T10:04:05.979Z,99990.59
2023-04-15T10:06:35.513Z,99984.66
2023-04-15T10:09:03.519Z,99994.38
2023-04-15T10:11:32.823Z,99992.41
2023-04-15T10:14:01.954Z,99993.28
2023-04-15T10:16:33.895Z,99991.16
2023-04-15T10:19:04.481Z,99985.19
2023-04-15T10:21:32.308Z,99988.31
2023-04-15T10:24:01.843Z,99982.25
2023-04-15T10:26:29.969Z,99989.09
2023-04-15T10:28:59.944Z,99988.78
2023-04-15T10:31:28.093Z,99986.94
2023-04-15T10:33:58.338Z,99986.91
2023-04-15T10:36:26.678Z,99989.88
2023-04-15T10:38:54.453Z,99989.06
2023-04-15T10:41:24.488Z,99990.53
2023-04-15T10:43:53.804Z,99994.38
2023-04-15T10:46:26.807Z,99994.25
2023-04-15T10:48:55.227Z,100009.47
2023-04-15T10:51:32.090Z,99999.91
2023-04-15T10:54:00.927Z,100005.66
2023-04-15T10:56:30.212Z,100007.66
2023-04-15T10:59:00.788Z,100009.47
2023-04-15T11:01:53.600Z,100013.56
2023-04-15T11:04:52.795Z,100028.59
2023-04-15T11:07:39.379Z,100006.84
2023-04-15T11:10:52.810Z,100013.72
2023-04-15T11:13:28.238Z,100004.34
2023-04-15T11:16:01.625Z,100002.19
2023-04-15T11:18:33.951Z,100010.28
2023-04-15T11:21:04.555Z,100017.84
2023-04-15T11:23:35.782Z,100015.88
2023-04-15T11:26:08.872Z,100025.94
2023-04-15T11:28:38.776Z,100026.63
2023-04-15T11:31:11.255Z,100034.72
2023-04-15T11:33:40.473Z,100030.78
2023-04-15T11:36:09.394Z,100034.25
2023-04-15T11:38:38.903Z,100046.09
2023-04-15T11:41:06.781Z,100044.81
2023-04-15T11:43:35.529Z,100047.75
2023-04-15T11:46:04.562Z,100051.75
2023-04-15T11:48:34.542Z,100056.03
2023-04-15T11:51:03.564Z,100057.03
2023-04-15T11:53:43.537Z,100059.31
2023-04-15T11:56:12.678Z,100055.53
2023-04-15T11:58:40.609Z,100057.31
2023-04-15T12:01:08.486Z,100060.25
2023-04-15T12:03:41.021Z,100062.75
2023-04-15T12:06:14.162Z,100060.09
2023-04-15T12:09:00.756Z,100065.06
2023-04-15T12:11:37.530Z,100066.72
2023-04-15T12:14:09.424Z,100059.94
2023-04-15T12:16:48.008Z,100072.97
2023-04-15T12:19:19.160Z,100073.63
2023-04-15T12:21:49.090Z,100070.66
2023-04-15T12:24:22.171Z,100081.72
2023-04-15T12:26:52.171Z,100078.59
2023-04-15T12:29:21.090Z,100081.75
2023-04-15T12:31:53.174Z,100092.31
2023-04-15T12:34:29.402Z,100097.06
2023-04-15T12:36:58.838Z,100092.28
2023-04-15T12:39:30.613Z,100098.56
2023-04-15T12:41:58.833Z,100100.22
2023-04-15T12:44:27.890Z,100104.84
2023-04-15T12:46:56.559Z,100115.25
2023-04-15T12:49:25.453Z,100106.66
2023-04-15T12:51:55.022Z,100116.91
2023-04-15T12:54:22.805Z,100121.00
2023-04-15T12:56:52.515Z,100116.69
2023-04-15T12:59:20.389Z,100118.34
2023-04-15T13:01:49.270Z,100118.56
2023-04-15T13:04:17.902Z,100123.16
2023-04-15T13:06:45.953Z,100137.50
2023-04-15T13:09:13.884Z,100125.44
2023-04-15T13:11:41.948Z,100124.47
2023-04-15T13:14:13.045Z,100129.75
2023-04-15T13:16:41.490Z,100124.47
2023-04-15T13:19:09.410Z,100131.41
2023-04-15T13:21:37.250Z,100126.47
2023-04-15T13:24:07.209Z,100128.94
2023-04-15T13:26:35.987Z,100145.44
2023-04-15T13:29:04.977Z,100139.69
2023-04-15T13:31:34.220Z,100137.03
2023-04-15T13:34:02.002Z,100149.72
2023-04-15T13:36:29.860Z,100150.09
2023-04-15T13:38:58.416Z,100149.41
2023-04-15T13:41:26.254Z,100154.19
2023-04-15T13:43:53.993Z,100152.06
2023-04-15T13:46:21.997Z,100160.81
2023-04-15T13:48:51.464Z,100163.59
2023-04-15T13:51:19.176Z,100155.34
2023-04-15T13:53:46.940Z,100174.16
2023-04-15T13:56:14.687Z,100167.53
2023-04-15T13:58:42.522Z,100159.97
2023-04-15T14:01:10.375Z,100169.53
2023-04-15T14:03:38.441Z,100170.69
2023-04-15T14:06:08.027Z,100176.13
2023-04-15T14:08:35.985Z,100180.44
2023-04-15T14:11:03.849Z,100175.31
2023-04-15T14:13:31.876Z,100192.97
2023-04-15T14:15:59.606Z,100191.16
2023-04-15T14:18:27.500Z,100187.69
2023-04-15T14:20:55.616Z,100186.84
2023-04-15T14:23:24.893Z,100188.66
2023-04-15T14:25:52.760Z,100201.22
2023-04-15T14:28:20.590Z,100197.75
2023-04-15T14:30:48.366Z,100204.50
2023-04-15T14:33:16.306Z,100205.66
2023-04-15T14:35:44.337Z,100208.31
2023-04-15T14:38:12.258Z,100212.59
2023-04-15T14:40:42.733Z,100217.25
2023-04-15T14:43:10.676Z,100220.72
2023-04-15T14:45:41.881Z,100215.06
2023-04-15T14:48:12.818Z,100227.59
2023-04-15T14:50:41.356Z,100233.72
2023-04-15T14:53:09.213Z,100234.91
2023-04-15T14:55:36.965Z,100239.16
2023-04-15T14:58:08.098Z,100241.66
2023-04-15T15:00:39.212Z,100247.59
2023-04-15T15:03:12.490Z,100251.41
2023-04-15T15:05:40.781Z,100244.63
2023-04-15T15:08:09.115Z,100253.72
2023-04-15T15:10:49.470Z,100252.72
2023-04-15T15:13:19.982Z,100260.81
2023-04-15T15:15:49.408Z,100260.81
2023-04-15T15:18:19.319Z,100263.31
2023-04-15T15:20:47.506Z,100274.84
2023-04-15T15:23:15.352Z,100272.22
2023-04-15T15:25:43.193Z,100276.81
2023-04-15T15:28:11.341Z,100270.88
2023-04-15T15:30:40.660Z,100278.47
2023-04-15T15:33:09.397Z,100289.38
2023-04-15T15:35:37.252Z,100287.72
2023-04-15T15:38:05.433Z,100289.38
2023-04-15T15:40:33.232Z,100287.41
2023-04-15T15:43:01.041Z,100297.31
2023-04-15T15:45:28.923Z,100290.53
2023-04-15T15:47:58.774Z,100301.75
2023-04-15T15:50:26.794Z,100307.38
2023-04-15T15:52:55.151Z,100299.78
2023-04-15T15:55:23.395Z,100306.06
2023-04-15T15:57:51.803Z,100304.41
2023-04-15T16:00:19.678Z,100313.66
2023-04-15T16:05:19.854Z,100319.44
2023-04-15T16:07:47.587Z,100320.41
2023-04-15T16:10:16.068Z,100325.38
2023-04-15T16:12:43.947Z,100332.47
2023-04-15T16:15:13.359Z,100339.44
2023-04-15T16:17:41.266Z,100331.16
2023-04-15T16:20:09.969Z,100339.06
2023-04-15T16:22:39.099Z,100336.28
2023-04-15T16:25:07.721Z,100337.59
2023-04-15T16:27:43.442Z,100341.75
2023-04-15T16:30:18.483Z,100344.88
2023-04-15T16:32:46.802Z,100346.84
2023-04-15T16:35:16.241Z,100346.84
2023-04-15T16:37:45.325Z,100342.72
2023-04-15T16:40:13.622Z,100349.34
2023-04-15T16:42:43.405Z,100352.81
2023-04-15T16:45:12.205Z,100351.31
2023-04-15T16:47:40.457Z,100345.88
2023-04-15T16:50:09.129Z,100351.31
2023-04-15T16:52:37.473Z,100364.53
2023-04-15T16:55:07.394Z,100366.69
2023-04-15T16:57:50.804Z,100365.03
2023-04-15T17:00:23.071Z,100370.78
2023-04-15T17:02:51.092Z,100375.75
2023-04-15T17:05:19.208Z,100378.09
2023-04-15T17:07:46.914Z,100386.34
2023-04-15T17:10:17.348Z,100375.59
2023-04-15T17:12:45.322Z,100375.09
2023-04-15T17:15:13.142Z,100379.22
2023-04-15T17:17:41.109Z,100386.34
2023-04-15T17:20:09.378Z,100385.84
2023-04-15T17:22:37.298Z,100387.66
2023-04-15T17:25:05.883Z,100386.84
2023-04-15T17:27:35.002Z,100393.13
2023-04-15T17:30:02.956Z,100400.06
2023-04-15T17:32:34.199Z,100389.97
2023-04-15T17:35:02.786Z,100393.28
2023-04-15T17:37:30.674Z,100394.78
2023-04-15T17:39:58.436Z,100382.34
2023-04-15T17:42:26.361Z,100398.41
2023-04-15T17:44:55.451Z,100394.94
2023-04-15T17:47:23.252Z,100403.34
2023-04-15T17:49:51.147Z,100404.53
2023-04-15T17:52:18.876Z,100407.81
2023-04-15T17:54:46.891Z,100415.72
2023-04-15T17:57:14.746Z,100419.53
2023-04-15T17:59:44.090Z,100433.44
2023-04-15T18:02:13.652Z,100426.63
2023-04-15T18:04:41.804Z,100438.03
2023-04-15T18:07:09.924Z,100445.59
2023-04-15T18:09:37.688Z,100449.56
2023-04-15T18:12:07.589Z,100449.25
2023-04-15T18:14:35.535Z,100444.59
2023-04-15T18:17:03.603Z,100450.91
2023-04-15T18:19:32.970Z,100450.06
2023-04-15T18:22:00.963Z,100452.72
2023-04-15T18:24:28.809Z,100449.41
2023-04-15T18:26:57.109Z,100455.81
2023-04-15T18:29:25.258Z,100461.44
2023-04-15T18:31:53.268Z,100459.13
2023-04-15T18:34:21.177Z,100467.06
2023-04-15T18:36:50.351Z,100477.94
2023-04-15T18:39:18.141Z,100475.28
2023-04-15T18:41:45.909Z,100488.19
2023-04-15T18:44:13.626Z,100487.22
2023-04-15T18:46:41.490Z,100488.19
2023-04-15T18:49:09.210Z,100489.03
2023-04-15T18:51:37.126Z,100495.97
2023-04-15T18:54:06.506Z,100499.25
2023-04-15T18:56:34.281Z,100500.91
2023-04-15T18:59:09.388Z,100502.25
2023-04-15T19:01:49.830Z,100506.16
2023-04-15T19:04:17.650Z,100508.16
2023-04-15T19:06:45.372Z,100522.22
2023-04-15T19:09:15.080Z,100522.50
2023-04-15T19:11:43.617Z,100519.53
2023-04-15T19:14:12.006Z,100525.94
2023-04-15T19:16:39.865Z,100531.38
2023-04-15T19:19:07.800Z,100531.72
2023-04-15T19:21:35.849Z,100540.28
2023-04-15T19:24:03.675Z,100545.75
2023-04-15T19:26:32.833Z,100535.34
2023-04-15T19:29:00.766Z,100542.59
2023-04-15T19:31:28.567Z,100546.88
2023-04-15T19:33:56.778Z,100545.91
2023-04-15T19:36:24.533Z,100557.44
2023-04-15T19:38:52.335Z,100555.47
2023-04-15T19:41:20.117Z,100553.69
2023-04-15T19:43:49.196Z,100551.19
2023-04-15T19:46:16.998Z,100559.09
2023-04-15T19:48:45.006Z,100550.03
2023-04-15T19:51:12.960Z,100557.94
2023-04-15T19:53:41.317Z,100565.72
2023-04-15T19:56:09.068Z,100559.78
2023-04-15T19:58:37.378Z,100565.22
2023-04-15T20:01:06.596Z,100562.59
2023-04-15T20:03:34.526Z,100564.88
2023-04-15T20:06:02.354Z,100564.38
2023-04-15T20:08:30.068Z,100574.13
2023-04-15T20:10:58.182Z,100580.53
2023-04-15T20:13:25.989Z,100577.06
2023-04-15T20:15:53.766Z,100581.50
2023-04-15T20:18:22.906Z,100581.38
2023-04-15T20:20:50.720Z,100585.66
2023-04-15T20:23:18.626Z,100586.50
2023-04-15T20:25:46.356Z,100583.84
2023-04-15T20:28:14.130Z,100589.63
2023-04-15T20:30:41.927Z,100582.34
2023-04-15T20:33:09.664Z,100583.72
2023-04-15T20:35:38.949Z,100583.84
2023-04-15T20:38:06.687Z,100580.25
2023-04-15T20:40:34.618Z,100585.53
2023-04-15T20:43:02.392Z,100590.81
2023-04-15T20:45:30.092Z,100583.22
2023-04-15T20:47:58.019Z,100584.75
2023-04-15T20:50:25.781Z,100586.22
2023-04-15T20:52:54.877Z,100594.00
2023-04-15T20:55:22.611Z,100593.84
2023-04-15T20:57:50.427Z,100591.53
2023-04-15T21:00:18.256Z,100597.50
2023-04-15T21:02:46.157Z,100600.00
2023-04-15T21:05:13.918Z,100600.16
2023-04-15T21:07:42.068Z,100600.69
2023-04-15T21:10:11.995Z,100604.97
2023-04-15T21:12:41.032Z,100601.66
2023-04-15T21:15:09.869Z,100608.63
2023-04-15T21:17:37.748Z,100611.06
2023-04-15T21:20:06.433Z,100609.44
2023-04-15T21:22:34.264Z,100613.72
2023-04-15T21:25:02.081Z,100615.53
2023-04-15T21:27:31.175Z,100614.25
2023-04-15T21:29:58.900Z,100615.22
2023-04-15T21:32:26.669Z,100613.72
2023-04-15T21:34:54.447Z,100623.16
2023-04-15T21:37:22.188Z,100617.88
2023-04-15T21:39:49.911Z,100625.66
2023-04-15T21:42:17.787Z,100631.44
2023-04-15T21:44:46.922Z,100631.44
2023-04-15T21:47:14.757Z,100640.19
2023-04-15T21:49:42.714Z,100644.81
2023-04-15T21:52:10.974Z,100639.53
2023-04-15T21:54:38.678Z,100648.78
2023-04-15T21:57:06.399Z,100639.06
2023-04-15T21:59:34.116Z,100647.81
2023-04-15T22:02:03.340Z,100650.47
2023-04-15T22:04:31.260Z,100651.97
2023-04-15T22:07:01.622Z,100652.94
2023-04-15T22:09:29.427Z,100657.06
2023-04-15T22:11:57.589Z,100655.44
2023-04-15T22:14:25.346Z,100656.41
2023-04-15T22:16:53.056Z,100656.41
2023-04-15T22:19:22.141Z,100658.88
2023-04-15T22:21:50.838Z,100656.22
2023-04-15T22:24:34.048Z,100656.88
2023-04-15T22:27:06.285Z,100659.38
2023-04-15T22:29:34.122Z,100658.88
2023-04-15T22:32:01.952Z,100661.66
2023-04-15T22:34:31.065Z,100658.50
2023-04-15T22:36:58.798Z,100663.09
2023-04-15T22:39:26.596Z,100663.28
2023-04-15T22:41:54.336Z,100660.78
2023-04-15T22:44:22.040Z,100667.56
2023-04-15T22:46:51.606Z,100680.47
2023-04-15T22:49:19.402Z,100685.75
2023-04-15T22:51:48.562Z,100691.84
2023-04-15T22:54:16.268Z,100693.22
2023-04-15T22:56:44.005Z,100699.16
2023-04-15T22:59:11.883Z,100697.50
2023-04-15T23:01:39.722Z,100692.75
2023-04-15T23:04:22.872Z,100706.47
2023-04-15T23:06:52.965Z,100700.66
2023-04-15T23:09:20.956Z,100700.38
2023-04-15T23:11:48.852Z,100699.53
2023-04-15T23:14:16.676Z,100703.03
2023-04-15T23:16:45.490Z,100706.66
2023-04-15T23:19:13.228Z,100705.28
2023-04-15T23:21:40.926Z,100707.56
2023-04-15T23:24:10.041Z,100711.88
2023-04-15T23:26:37.893Z,100716.84
2023-04-15T23:29:05.783Z,100715.16
2023-04-15T23:31:33.555Z,100710.06
2023-04-15T23:34:01.356Z,100718.00
2023-04-15T23:36:29.152Z,100714.38
2023-04-15T23:38:56.872Z,100712.53
2023-04-15T23:41:26.057Z,100713.22
2023-04-15T23:43:53.795Z,100711.41
2023-04-15T23:46:21.527Z,100715.56
2023-04-15T23:48:49.696Z,100718.34
2023-04-15T23:51:17.940Z,100714.72
2023-04-15T23:53:45.740Z,100716.00
2023-04-15T23:56:13.460Z,100722.78
2023-04-15T23:58:42.618Z,100716.69
